sensor_id;sensor_type;location;lat;lon;timestamp;P1;durP1;ratioP1;P2;durP2;ratioP2
52724;SDS011;38621;52.830;6.914;2023-08-12T00:01:39;3.63;;;1.83;;
52724;SDS011;38621;52.830;6.914;2023-08-12T00:04:05;3.85;;;2.17;;
52724;SDS011;38621;52.830;6.914;2023-08-12T00:06:31;3.35;;;2.10;;
52724;SDS011;38621;52.830;6.914;2023-08-12T00:08:57;3.33;;;1.90;;
52724;SDS011;38621;52.830;6.914;2023-08-12T00:11:22;3.40;;;2.10;;
52724;SDS011;38621;52.830;6.914;2023-08-12T00:13:48;4.40;;;1.90;;
52724;SDS011;38621;52.830;6.914;2023-08-12T00:16:14;3.30;;;2.10;;
52724;SDS011;38621;52.830;6.914;2023-08-12T00:18:39;5.47;;;2.17;;
52724;SDS011;38621;52.830;6.914;2023-08-12T00:21:09;5.00;;;2.67;;
52724;SDS011;38621;52.830;6.914;2023-08-12T00:23:41;5.95;;;2.95;;
52724;SDS011;38621;52.830;6.914;2023-08-12T00:26:08;5.90;;;3.50;;
52724;SDS011;38621;52.830;6.914;2023-08-12T00:28:33;7.00;;;3.30;;
52724;SDS011;38621;52.830;6.914;2023-08-12T00:30:59;7.32;;;3.53;;
52724;SDS011;38621;52.830;6.914;2023-08-12T00:33:25;7.18;;;3.92;;
52724;SDS011;38621;52.830;6.914;2023-08-12T00:35:51;6.43;;;4.00;;
52724;SDS011;38621;52.830;6.914;2023-08-12T00:38:16;6.95;;;3.80;;
52724;SDS011;38621;52.830;6.914;2023-08-12T00:40:42;6.07;;;3.70;;
52724;SDS011;38621;52.830;6.914;2023-08-12T00:43:08;5.88;;;4.05;;
52724;SDS011;38621;52.830;6.914;2023-08-12T00:45:35;9.00;;;4.65;;
52724;SDS011;38621;52.830;6.914;2023-08-12T00:48:01;9.57;;;5.03;;
52724;SDS011;38621;52.830;6.914;2023-08-12T00:50:28;9.38;;;5.45;;
52724;SDS011;38621;52.830;6.914;2023-08-12T00:52:54;9.20;;;5.00;;
52724;SDS011;38621;52.830;6.914;2023-08-12T00:55:19;9.05;;;4.85;;
52724;SDS011;38621;52.830;6.914;2023-08-12T00:57:46;9.65;;;4.70;;
52724;SDS011;38621;52.830;6.914;2023-08-12T01:00:12;8.30;;;5.10;;
52724;SDS011;38621;52.830;6.914;2023-08-12T01:02:39;8.60;;;5.15;;
52724;SDS011;38621;52.830;6.914;2023-08-12T01:05:09;9.60;;;5.45;;
52724;SDS011;38621;52.830;6.914;2023-08-12T01:07:35;8.77;;;5.25;;
52724;SDS011;38621;52.830;6.914;2023-08-12T01:10:01;9.50;;;5.20;;
52724;SDS011;38621;52.830;6.914;2023-08-12T01:12:28;8.10;;;5.00;;
52724;SDS011;38621;52.830;6.914;2023-08-12T01:15:04;7.47;;;5.28;;
52724;SDS011;38621;52.830;6.914;2023-08-12T01:17:33;7.55;;;5.25;;
52724;SDS011;38621;52.830;6.914;2023-08-12T01:20:03;7.43;;;5.05;;
52724;SDS011;38621;52.830;6.914;2023-08-12T01:22:37;9.15;;;5.63;;
52724;SDS011;38621;52.830;6.914;2023-08-12T01:25:06;9.27;;;5.70;;
52724;SDS011;38621;52.830;6.914;2023-08-12T01:27:34;8.77;;;6.10;;
52724;SDS011;38621;52.830;6.914;2023-08-12T01:30:03;9.13;;;5.95;;
52724;SDS011;38621;52.830;6.914;2023-08-12T01:32:34;7.75;;;5.07;;
52724;SDS011;38621;52.830;6.914;2023-08-12T01:37:46;9.13;;;5.95;;
52724;SDS011;38621;52.830;6.914;2023-08-12T01:40:15;9.20;;;5.97;;
52724;SDS011;38621;52.830;6.914;2023-08-12T01:42:42;10.40;;;5.72;;
52724;SDS011;38621;52.830;6.914;2023-08-12T01:45:08;8.88;;;5.63;;
52724;SDS011;38621;52.830;6.914;2023-08-12T01:47:33;8.77;;;5.63;;
52724;SDS011;38621;52.830;6.914;2023-08-12T01:49:59;8.68;;;5.65;;
52724;SDS011;38621;52.830;6.914;2023-08-12T01:52:25;9.00;;;6.32;;
52724;SDS011;38621;52.830;6.914;2023-08-12T01:54:51;9.98;;;5.70;;
52724;SDS011;38621;52.830;6.914;2023-08-12T01:57:16;7.85;;;5.75;;
52724;SDS011;38621;52.830;6.914;2023-08-12T01:59:42;9.82;;;5.55;;
52724;SDS011;38621;52.830;6.914;2023-08-12T02:02:11;7.97;;;5.57;;
52724;SDS011;38621;52.830;6.914;2023-08-12T02:04:37;10.95;;;5.97;;
52724;SDS011;38621;52.830;6.914;2023-08-12T02:07:04;8.50;;;5.32;;
52724;SDS011;38621;52.830;6.914;2023-08-12T02:09:30;9.70;;;5.85;;
52724;SDS011;38621;52.830;6.914;2023-08-12T02:11:56;8.32;;;5.53;;
52724;SDS011;38621;52.830;6.914;2023-08-12T02:14:22;8.68;;;5.10;;
52724;SDS011;38621;52.830;6.914;2023-08-12T02:16:47;7.50;;;4.85;;
52724;SDS011;38621;52.830;6.914;2023-08-12T02:19:13;9.00;;;5.63;;
52724;SDS011;38621;52.830;6.914;2023-08-12T02:21:39;8.73;;;5.47;;
52724;SDS011;38621;52.830;6.914;2023-08-12T02:24:05;9.30;;;5.15;;
52724;SDS011;38621;52.830;6.914;2023-08-12T02:26:31;9.48;;;5.70;;
52724;SDS011;38621;52.830;6.914;2023-08-12T02:28:58;8.68;;;5.30;;
52724;SDS011;38621;52.830;6.914;2023-08-12T02:31:23;8.27;;;5.68;;
52724;SDS011;38621;52.830;6.914;2023-08-12T02:33:50;10.50;;;5.47;;
52724;SDS011;38621;52.830;6.914;2023-08-12T02:36:15;9.13;;;6.43;;
52724;SDS011;38621;52.830;6.914;2023-08-12T02:38:41;9.02;;;5.80;;
52724;SDS011;38621;52.830;6.914;2023-08-12T02:41:07;10.15;;;6.55;;
52724;SDS011;38621;52.830;6.914;2023-08-12T02:43:33;13.18;;;7.07;;
52724;SDS011;38621;52.830;6.914;2023-08-12T02:45:58;12.05;;;6.90;;
52724;SDS011;38621;52.830;6.914;2023-08-12T02:48:24;9.82;;;6.53;;
52724;SDS011;38621;52.830;6.914;2023-08-12T02:50:50;9.63;;;7.15;;
52724;SDS011;38621;52.830;6.914;2023-08-12T02:53:15;10.68;;;6.95;;
52724;SDS011;38621;52.830;6.914;2023-08-12T02:55:42;11.30;;;6.72;;
52724;SDS011;38621;52.830;6.914;2023-08-12T02:58:10;11.10;;;7.47;;
52724;SDS011;38621;52.830;6.914;2023-08-12T03:00:35;12.25;;;7.47;;
52724;SDS011;38621;52.830;6.914;2023-08-12T03:03:01;12.15;;;6.93;;
52724;SDS011;38621;52.830;6.914;2023-08-12T03:05:27;10.30;;;6.88;;
52724;SDS011;38621;52.830;6.914;2023-08-12T03:07:52;9.98;;;7.10;;
52724;SDS011;38621;52.830;6.914;2023-08-12T03:10:18;12.13;;;7.07;;
52724;SDS011;38621;52.830;6.914;2023-08-12T03:12:44;10.95;;;7.18;;
52724;SDS011;38621;52.830;6.914;2023-08-12T03:15:10;10.13;;;6.55;;
52724;SDS011;38621;52.830;6.914;2023-08-12T03:17:36;10.10;;;6.75;;
52724;SDS011;38621;52.830;6.914;2023-08-12T03:20:04;10.32;;;6.53;;
52724;SDS011;38621;52.830;6.914;2023-08-12T03:22:31;9.20;;;6.70;;
52724;SDS011;38621;52.830;6.914;2023-08-12T03:24:56;9.13;;;6.10;;
52724;SDS011;38621;52.830;6.914;2023-08-12T03:27:22;11.23;;;6.53;;
52724;SDS011;38621;52.830;6.914;2023-08-12T03:29:48;8.77;;;6.60;;
52724;SDS011;38621;52.830;6.914;2023-08-12T03:32:13;11.60;;;6.90;;
52724;SDS011;38621;52.830;6.914;2023-08-12T03:34:39;9.65;;;6.47;;
52724;SDS011;38621;52.830;6.914;2023-08-12T03:37:05;12.35;;;6.63;;
52724;SDS011;38621;52.830;6.914;2023-08-12T03:39:30;9.05;;;6.38;;
52724;SDS011;38621;52.830;6.914;2023-08-12T03:41:56;11.38;;;6.20;;
52724;SDS011;38621;52.830;6.914;2023-08-12T03:44:22;10.52;;;6.90;;
52724;SDS011;38621;52.830;6.914;2023-08-12T03:46:47;10.48;;;6.97;;
52724;SDS011;38621;52.830;6.914;2023-08-12T03:49:13;9.20;;;6.80;;
52724;SDS011;38621;52.830;6.914;2023-08-12T03:51:39;9.38;;;6.30;;
52724;SDS011;38621;52.830;6.914;2023-08-12T03:54:05;9.18;;;5.75;;
52724;SDS011;38621;52.830;6.914;2023-08-12T03:56:31;10.90;;;6.80;;
52724;SDS011;38621;52.830;6.914;2023-08-12T03:58:56;9.48;;;6.18;;
52724;SDS011;38621;52.830;6.914;2023-08-12T04:01:22;9.75;;;5.85;;
52724;SDS011;38621;52.830;6.914;2023-08-12T04:03:48;10.98;;;6.57;;
52724;SDS011;38621;52.830;6.914;2023-08-12T04:06:14;9.15;;;6.75;;
52724;SDS011;38621;52.830;6.914;2023-08-12T04:08:40;10.85;;;7.13;;
52724;SDS011;38621;52.830;6.914;2023-08-12T04:11:05;10.07;;;6.40;;
52724;SDS011;38621;52.830;6.914;2023-08-12T04:13:31;10.20;;;6.60;;
52724;SDS011;38621;52.830;6.914;2023-08-12T04:15:57;9.95;;;6.22;;
52724;SDS011;38621;52.830;6.914;2023-08-12T04:18:23;10.57;;;7.25;;
52724;SDS011;38621;52.830;6.914;2023-08-12T04:20:49;9.75;;;6.30;;
52724;SDS011;38621;52.830;6.914;2023-08-12T04:23:16;10.98;;;7.05;;
52724;SDS011;38621;52.830;6.914;2023-08-12T04:25:45;10.32;;;6.70;;
52724;SDS011;38621;52.830;6.914;2023-08-12T04:28:12;10.82;;;6.80;;
52724;SDS011;38621;52.830;6.914;2023-08-12T04:30:42;12.27;;;7.25;;
52724;SDS011;38621;52.830;6.914;2023-08-12T04:33:12;11.57;;;6.68;;
52724;SDS011;38621;52.830;6.914;2023-08-12T04:35:38;11.43;;;7.50;;
52724;SDS011;38621;52.830;6.914;2023-08-12T04:38:05;10.50;;;7.35;;
52724;SDS011;38621;52.830;6.914;2023-08-12T04:40:31;10.80;;;7.45;;
52724;SDS011;38621;52.830;6.914;2023-08-12T04:42:57;12.48;;;7.72;;
52724;SDS011;38621;52.830;6.914;2023-08-12T04:45:24;13.18;;;7.90;;
52724;SDS011;38621;52.830;6.914;2023-08-12T04:47:49;12.25;;;8.32;;
52724;SDS011;38621;52.830;6.914;2023-08-12T04:50:15;10.57;;;7.60;;
52724;SDS011;38621;52.830;6.914;2023-08-12T04:52:41;13.20;;;7.80;;
52724;SDS011;38621;52.830;6.914;2023-08-12T04:55:06;11.38;;;8.30;;
52724;SDS011;38621;52.830;6.914;2023-08-12T04:57:33;13.15;;;8.80;;
52724;SDS011;38621;52.830;6.914;2023-08-12T04:59:58;14.43;;;8.38;;
52724;SDS011;38621;52.830;6.914;2023-08-12T05:02:24;13.05;;;8.73;;
52724;SDS011;38621;52.830;6.914;2023-08-12T05:04:50;13.85;;;8.77;;
52724;SDS011;38621;52.830;6.914;2023-08-12T05:07:17;10.10;;;8.18;;
52724;SDS011;38621;52.830;6.914;2023-08-12T05:09:42;12.05;;;8.20;;
52724;SDS011;38621;52.830;6.914;2023-08-12T05:12:09;13.77;;;10.30;;
52724;SDS011;38621;52.830;6.914;2023-08-12T05:14:36;13.68;;;9.02;;
52724;SDS011;38621;52.830;6.914;2023-08-12T05:17:02;14.13;;;9.25;;
52724;SDS011;38621;52.830;6.914;2023-08-12T05:19:28;16.63;;;9.70;;
52724;SDS011;38621;52.830;6.914;2023-08-12T05:21:54;13.63;;;9.40;;
52724;SDS011;38621;52.830;6.914;2023-08-12T05:24:19;14.77;;;9.82;;
52724;SDS011;38621;52.830;6.914;2023-08-12T05:26:45;14.88;;;9.23;;
52724;SDS011;38621;52.830;6.914;2023-08-12T05:29:11;13.25;;;10.00;;
52724;SDS011;38621;52.830;6.914;2023-08-12T05:31:37;14.38;;;9.65;;
52724;SDS011;38621;52.830;6.914;2023-08-12T05:34:03;15.55;;;10.35;;
52724;SDS011;38621;52.830;6.914;2023-08-12T05:36:29;17.13;;;11.13;;
52724;SDS011;38621;52.830;6.914;2023-08-12T05:38:55;17.40;;;10.60;;
52724;SDS011;38621;52.830;6.914;2023-08-12T05:41:20;18.42;;;10.85;;
52724;SDS011;38621;52.830;6.914;2023-08-12T05:43:47;18.13;;;11.38;;
52724;SDS011;38621;52.830;6.914;2023-08-12T05:46:13;16.27;;;11.15;;
52724;SDS011;38621;52.830;6.914;2023-08-12T05:48:39;19.33;;;12.40;;
52724;SDS011;38621;52.830;6.914;2023-08-12T05:51:05;17.38;;;12.20;;
52724;SDS011;38621;52.830;6.914;2023-08-12T05:53:30;17.77;;;11.75;;
52724;SDS011;38621;52.830;6.914;2023-08-12T05:55:57;15.75;;;11.43;;
52724;SDS011;38621;52.830;6.914;2023-08-12T05:58:22;18.90;;;12.32;;
52724;SDS011;38621;52.830;6.914;2023-08-12T06:00:48;18.08;;;11.77;;
52724;SDS011;38621;52.830;6.914;2023-08-12T06:03:15;17.33;;;12.05;;
52724;SDS011;38621;52.830;6.914;2023-08-12T06:05:41;19.25;;;12.27;;
52724;SDS011;38621;52.830;6.914;2023-08-12T06:08:09;16.63;;;12.10;;
52724;SDS011;38621;52.830;6.914;2023-08-12T06:10:35;19.42;;;12.65;;
52724;SDS011;38621;52.830;6.914;2023-08-12T06:13:00;17.92;;;12.77;;
52724;SDS011;38621;52.830;6.914;2023-08-12T06:15:26;17.92;;;12.15;;
52724;SDS011;38621;52.830;6.914;2023-08-12T06:17:52;17.65;;;12.25;;
52724;SDS011;38621;52.830;6.914;2023-08-12T06:20:18;18.77;;;12.88;;
52724;SDS011;38621;52.830;6.914;2023-08-12T06:22:43;17.02;;;13.02;;
52724;SDS011;38621;52.830;6.914;2023-08-12T06:25:09;18.40;;;13.18;;
52724;SDS011;38621;52.830;6.914;2023-08-12T06:27:34;19.30;;;13.52;;
52724;SDS011;38621;52.830;6.914;2023-08-12T06:30:00;20.50;;;13.82;;
52724;SDS011;38621;52.830;6.914;2023-08-12T06:32:26;18.23;;;13.43;;
52724;SDS011;38621;52.830;6.914;2023-08-12T06:34:51;19.17;;;13.55;;
52724;SDS011;38621;52.830;6.914;2023-08-12T06:37:17;18.48;;;13.20;;
52724;SDS011;38621;52.830;6.914;2023-08-12T06:39:43;19.83;;;13.40;;
52724;SDS011;38621;52.830;6.914;2023-08-12T06:42:08;19.20;;;14.18;;
52724;SDS011;38621;52.830;6.914;2023-08-12T06:44:34;19.80;;;14.38;;
52724;SDS011;38621;52.830;6.914;2023-08-12T06:47:00;19.23;;;14.15;;
52724;SDS011;38621;52.830;6.914;2023-08-12T06:49:25;21.63;;;14.48;;
52724;SDS011;38621;52.830;6.914;2023-08-12T06:51:51;20.13;;;14.20;;
52724;SDS011;38621;52.830;6.914;2023-08-12T06:54:17;20.38;;;13.48;;
52724;SDS011;38621;52.830;6.914;2023-08-12T06:56:42;17.02;;;12.98;;
52724;SDS011;38621;52.830;6.914;2023-08-12T06:59:08;19.25;;;13.13;;
52724;SDS011;38621;52.830;6.914;2023-08-12T07:01:34;19.45;;;13.55;;
52724;SDS011;38621;52.830;6.914;2023-08-12T07:03:59;22.30;;;14.10;;
52724;SDS011;38621;52.830;6.914;2023-08-12T07:06:25;18.23;;;13.50;;
52724;SDS011;38621;52.830;6.914;2023-08-12T07:08:51;19.92;;;14.38;;
52724;SDS011;38621;52.830;6.914;2023-08-12T07:11:17;19.55;;;13.13;;
52724;SDS011;38621;52.830;6.914;2023-08-12T07:13:43;18.35;;;13.25;;
52724;SDS011;38621;52.830;6.914;2023-08-12T07:16:11;19.38;;;13.13;;
52724;SDS011;38621;52.830;6.914;2023-08-12T07:18:37;21.45;;;14.32;;
52724;SDS011;38621;52.830;6.914;2023-08-12T07:21:02;21.50;;;14.32;;
52724;SDS011;38621;52.830;6.914;2023-08-12T07:23:28;23.17;;;14.90;;
52724;SDS011;38621;52.830;6.914;2023-08-12T07:25:54;21.85;;;14.57;;
52724;SDS011;38621;52.830;6.914;2023-08-12T07:28:20;20.02;;;14.95;;
52724;SDS011;38621;52.830;6.914;2023-08-12T07:30:46;21.70;;;14.10;;
52724;SDS011;38621;52.830;6.914;2023-08-12T07:33:13;20.65;;;14.30;;
52724;SDS011;38621;52.830;6.914;2023-08-12T07:35:39;19.85;;;13.55;;
52724;SDS011;38621;52.830;6.914;2023-08-12T07:38:04;22.33;;;14.45;;
52724;SDS011;38621;52.830;6.914;2023-08-12T07:40:30;20.42;;;14.25;;
52724;SDS011;38621;52.830;6.914;2023-08-12T07:42:56;20.50;;;13.43;;
52724;SDS011;38621;52.830;6.914;2023-08-12T07:45:22;18.63;;;13.02;;
52724;SDS011;38621;52.830;6.914;2023-08-12T07:47:48;17.35;;;12.57;;
52724;SDS011;38621;52.830;6.914;2023-08-12T07:50:14;17.92;;;12.63;;
52724;SDS011;38621;52.830;6.914;2023-08-12T07:52:40;17.67;;;12.43;;
52724;SDS011;38621;52.830;6.914;2023-08-12T07:55:06;17.52;;;12.95;;
52724;SDS011;38621;52.830;6.914;2023-08-12T07:57:32;18.08;;;13.07;;
52724;SDS011;38621;52.830;6.914;2023-08-12T07:59:58;20.52;;;12.55;;
52724;SDS011;38621;52.830;6.914;2023-08-12T08:02:23;17.80;;;11.95;;
52724;SDS011;38621;52.830;6.914;2023-08-12T08:04:49;15.63;;;11.70;;
52724;SDS011;38621;52.830;6.914;2023-08-12T08:07:15;14.38;;;11.05;;
52724;SDS011;38621;52.830;6.914;2023-08-12T08:09:42;15.95;;;11.52;;
52724;SDS011;38621;52.830;6.914;2023-08-12T08:12:08;15.35;;;11.30;;
52724;SDS011;38621;52.830;6.914;2023-08-12T08:14:35;14.88;;;10.77;;
52724;SDS011;38621;52.830;6.914;2023-08-12T08:17:02;14.27;;;9.77;;
52724;SDS011;38621;52.830;6.914;2023-08-12T08:19:28;14.07;;;10.02;;
52724;SDS011;38621;52.830;6.914;2023-08-12T08:21:54;14.40;;;9.60;;
52724;SDS011;38621;52.830;6.914;2023-08-12T08:24:20;14.10;;;9.80;;
52724;SDS011;38621;52.830;6.914;2023-08-12T08:26:46;12.13;;;8.85;;
52724;SDS011;38621;52.830;6.914;2023-08-12T08:29:12;12.52;;;9.35;;
52724;SDS011;38621;52.830;6.914;2023-08-12T08:31:38;11.77;;;8.95;;
52724;SDS011;38621;52.830;6.914;2023-08-12T08:34:04;15.30;;;9.18;;
52724;SDS011;38621;52.830;6.914;2023-08-12T08:36:30;13.90;;;9.50;;
52724;SDS011;38621;52.830;6.914;2023-08-12T08:38:56;12.75;;;9.30;;
52724;SDS011;38621;52.830;6.914;2023-08-12T08:41:21;11.48;;;9.07;;
52724;SDS011;38621;52.830;6.914;2023-08-12T08:43:48;15.30;;;10.27;;
52724;SDS011;38621;52.830;6.914;2023-08-12T08:46:16;14.32;;;10.30;;
52724;SDS011;38621;52.830;6.914;2023-08-12T08:48:42;13.90;;;9.50;;
52724;SDS011;38621;52.830;6.914;2023-08-12T08:51:10;11.52;;;8.60;;
52724;SDS011;38621;52.830;6.914;2023-08-12T08:53:40;12.27;;;8.55;;
52724;SDS011;38621;52.830;6.914;2023-08-12T08:56:06;10.40;;;8.43;;
52724;SDS011;38621;52.830;6.914;2023-08-12T08:58:36;10.85;;;7.93;;
52724;SDS011;38621;52.830;6.914;2023-08-12T09:01:03;12.32;;;8.02;;
52724;SDS011;38621;52.830;6.914;2023-08-12T09:03:31;10.43;;;7.30;;
52724;SDS011;38621;52.830;6.914;2023-08-12T09:05:58;8.52;;;6.95;;
52724;SDS011;38621;52.830;6.914;2023-08-12T09:08:24;8.90;;;6.93;;
52724;SDS011;38621;52.830;6.914;2023-08-12T09:10:51;10.45;;;6.55;;
52724;SDS011;38621;52.830;6.914;2023-08-12T09:13:18;10.35;;;7.43;;
52724;SDS011;38621;52.830;6.914;2023-08-12T09:15:44;10.88;;;7.72;;
52724;SDS011;38621;52.830;6.914;2023-08-12T09:18:09;9.38;;;7.30;;
52724;SDS011;38621;52.830;6.914;2023-08-12T09:20:35;9.27;;;7.13;;
52724;SDS011;38621;52.830;6.914;2023-08-12T09:23:02;9.27;;;6.45;;
52724;SDS011;38621;52.830;6.914;2023-08-12T09:25:28;10.98;;;7.15;;
52724;SDS011;38621;52.830;6.914;2023-08-12T09:28:00;9.90;;;7.40;;
52724;SDS011;38621;52.830;6.914;2023-08-12T09:30:28;9.82;;;6.63;;
52724;SDS011;38621;52.830;6.914;2023-08-12T09:32:59;7.70;;;6.05;;
52724;SDS011;38621;52.830;6.914;2023-08-12T09:35:38;6.53;;;4.22;;
52724;SDS011;38621;52.830;6.914;2023-08-12T09:38:12;5.60;;;3.83;;
52724;SDS011;38621;52.830;6.914;2023-08-12T09:40:38;5.45;;;4.00;;
52724;SDS011;38621;52.830;6.914;2023-08-12T09:43:04;6.32;;;4.20;;
52724;SDS011;38621;52.830;6.914;2023-08-12T09:45:31;6.60;;;3.95;;
52724;SDS011;38621;52.830;6.914;2023-08-12T09:47:57;4.15;;;3.50;;
52724;SDS011;38621;52.830;6.914;2023-08-12T09:50:27;4.60;;;3.78;;
52724;SDS011;38621;52.830;6.914;2023-08-12T09:52:53;4.25;;;2.90;;
52724;SDS011;38621;52.830;6.914;2023-08-12T09:55:20;3.33;;;2.50;;
52724;SDS011;38621;52.830;6.914;2023-08-12T09:57:51;3.90;;;2.55;;
52724;SDS011;38621;52.830;6.914;2023-08-12T10:00:18;5.38;;;3.38;;
52724;SDS011;38621;52.830;6.914;2023-08-12T10:02:46;4.32;;;2.78;;
52724;SDS011;38621;52.830;6.914;2023-08-12T10:05:16;4.45;;;2.85;;
52724;SDS011;38621;52.830;6.914;2023-08-12T10:07:47;5.70;;;3.15;;
52724;SDS011;38621;52.830;6.914;2023-08-12T10:10:14;4.57;;;3.28;;
52724;SDS011;38621;52.830;6.914;2023-08-12T10:12:40;6.65;;;3.00;;
52724;SDS011;38621;52.830;6.914;2023-08-12T10:15:07;7.25;;;2.70;;
52724;SDS011;38621;52.830;6.914;2023-08-12T10:17:34;3.92;;;2.40;;
52724;SDS011;38621;52.830;6.914;2023-08-12T10:20:04;4.45;;;2.58;;
52724;SDS011;38621;52.830;6.914;2023-08-12T10:22:31;3.35;;;2.30;;
52724;SDS011;38621;52.830;6.914;2023-08-12T10:25:01;4.15;;;2.50;;
52724;SDS011;38621;52.830;6.914;2023-08-12T10:27:28;4.22;;;2.47;;
52724;SDS011;38621;52.830;6.914;2023-08-12T10:29:57;3.80;;;2.50;;
52724;SDS011;38621;52.830;6.914;2023-08-12T10:32:23;4.35;;;3.03;;
52724;SDS011;38621;52.830;6.914;2023-08-12T10:34:56;4.15;;;2.50;;
52724;SDS011;38621;52.830;6.914;2023-08-12T10:37:23;4.10;;;2.15;;
52724;SDS011;38621;52.830;6.914;2023-08-12T10:39:51;3.22;;;1.70;;
52724;SDS011;38621;52.830;6.914;2023-08-12T10:45:09;2.85;;;1.83;;
52724;SDS011;38621;52.830;6.914;2023-08-12T10:47:40;2.75;;;1.90;;
52724;SDS011;38621;52.830;6.914;2023-08-12T10:50:17;2.67;;;1.50;;
52724;SDS011;38621;52.830;6.914;2023-08-12T10:52:44;2.53;;;1.48;;
52724;SDS011;38621;52.830;6.914;2023-08-12T10:55:23;4.60;;;1.70;;
52724;SDS011;38621;52.830;6.914;2023-08-12T10:57:51;2.95;;;1.67;;
52724;SDS011;38621;52.830;6.914;2023-08-12T11:00:19;3.60;;;1.30;;
52724;SDS011;38621;52.830;6.914;2023-08-12T11:02:54;1.88;;;1.15;;
52724;SDS011;38621;52.830;6.914;2023-08-12T11:05:22;2.72;;;1.40;;
52724;SDS011;38621;52.830;6.914;2023-08-12T11:10:22;1.90;;;1.10;;
52724;SDS011;38621;52.830;6.914;2023-08-12T11:15:36;2.15;;;1.23;;
52724;SDS011;38621;52.830;6.914;2023-08-12T11:18:10;2.30;;;1.30;;
52724;SDS011;38621;52.830;6.914;2023-08-12T11:20:39;2.10;;;1.38;;
52724;SDS011;38621;52.830;6.914;2023-08-12T11:23:05;2.75;;;1.50;;
52724;SDS011;38621;52.830;6.914;2023-08-12T11:25:32;2.15;;;1.25;;
52724;SDS011;38621;52.830;6.914;2023-08-12T11:27:59;1.90;;;1.00;;
52724;SDS011;38621;52.830;6.914;2023-08-12T11:30:25;3.15;;;1.20;;
52724;SDS011;38621;52.830;6.914;2023-08-12T11:32:52;2.10;;;1.00;;
52724;SDS011;38621;52.830;6.914;2023-08-12T11:35:20;2.45;;;1.08;;
52724;SDS011;38621;52.830;6.914;2023-08-12T11:37:47;1.80;;;1.00;;
52724;SDS011;38621;52.830;6.914;2023-08-12T11:40:15;1.05;;;0.60;;
52724;SDS011;38621;52.830;6.914;2023-08-12T11:42:43;1.85;;;0.98;;
52724;SDS011;38621;52.830;6.914;2023-08-12T11:45:11;1.45;;;0.80;;
52724;SDS011;38621;52.830;6.914;2023-08-12T11:47:38;2.10;;;0.90;;
52724;SDS011;38621;52.830;6.914;2023-08-12T11:50:06;1.70;;;0.80;;
52724;SDS011;38621;52.830;6.914;2023-08-12T11:52:33;1.65;;;0.80;;
52724;SDS011;38621;52.830;6.914;2023-08-12T11:55:00;1.33;;;0.70;;
52724;SDS011;38621;52.830;6.914;2023-08-12T11:57:26;1.40;;;0.80;;
52724;SDS011;38621;52.830;6.914;2023-08-12T11:59:57;1.50;;;0.80;;
52724;SDS011;38621;52.830;6.914;2023-08-12T12:02:30;1.33;;;0.80;;
52724;SDS011;38621;52.830;6.914;2023-08-12T12:04:55;1.60;;;0.80;;
52724;SDS011;38621;52.830;6.914;2023-08-12T12:07:25;1.40;;;0.80;;
52724;SDS011;38621;52.830;6.914;2023-08-12T12:09:55;1.02;;;0.60;;
52724;SDS011;38621;52.830;6.914;2023-08-12T12:12:24;2.35;;;0.70;;
52724;SDS011;38621;52.830;6.914;2023-08-12T12:14:53;1.02;;;0.70;;
52724;SDS011;38621;52.830;6.914;2023-08-12T12:17:23;1.38;;;0.60;;
52724;SDS011;38621;52.830;6.914;2023-08-12T12:19:55;1.40;;;0.70;;
52724;SDS011;38621;52.830;6.914;2023-08-12T12:22:26;1.30;;;0.60;;
52724;SDS011;38621;52.830;6.914;2023-08-12T12:24:53;1.40;;;0.80;;
52724;SDS011;38621;52.830;6.914;2023-08-12T12:27:19;2.40;;;0.90;;
52724;SDS011;38621;52.830;6.914;2023-08-12T12:29:44;1.50;;;0.93;;
52724;SDS011;38621;52.830;6.914;2023-08-12T12:32:10;1.38;;;0.70;;
52724;SDS011;38621;52.830;6.914;2023-08-12T12:34:36;1.30;;;0.70;;
52724;SDS011;38621;52.830;6.914;2023-08-12T12:37:02;1.50;;;0.90;;
52724;SDS011;38621;52.830;6.914;2023-08-12T12:39:27;1.67;;;0.90;;
52724;SDS011;38621;52.830;6.914;2023-08-12T12:41:53;1.20;;;0.80;;
52724;SDS011;38621;52.830;6.914;2023-08-12T12:44:18;1.42;;;0.88;;
52724;SDS011;38621;52.830;6.914;2023-08-12T12:46:44;1.50;;;0.90;;
52724;SDS011;38621;52.830;6.914;2023-08-12T12:49:10;1.10;;;0.55;;
52724;SDS011;38621;52.830;6.914;2023-08-12T12:51:36;1.23;;;0.70;;
52724;SDS011;38621;52.830;6.914;2023-08-12T12:54:01;1.83;;;0.80;;
52724;SDS011;38621;52.830;6.914;2023-08-12T12:56:27;1.70;;;1.08;;
52724;SDS011;38621;52.830;6.914;2023-08-12T12:58:53;1.80;;;0.88;;
52724;SDS011;38621;52.830;6.914;2023-08-12T13:01:18;1.30;;;0.70;;
52724;SDS011;38621;52.830;6.914;2023-08-12T13:03:44;2.10;;;1.10;;
52724;SDS011;38621;52.830;6.914;2023-08-12T13:06:10;3.38;;;1.60;;
52724;SDS011;38621;52.830;6.914;2023-08-12T13:08:35;2.35;;;1.35;;
52724;SDS011;38621;52.830;6.914;2023-08-12T13:11:01;2.60;;;1.30;;
52724;SDS011;38621;52.830;6.914;2023-08-12T13:13:27;2.00;;;1.27;;
52724;SDS011;38621;52.830;6.914;2023-08-12T13:15:52;2.75;;;1.30;;
52724;SDS011;38621;52.830;6.914;2023-08-12T13:18:18;2.42;;;1.40;;
52724;SDS011;38621;52.830;6.914;2023-08-12T13:20:44;3.65;;;1.10;;
52724;SDS011;38621;52.830;6.914;2023-08-12T13:23:10;2.65;;;1.15;;
52724;SDS011;38621;52.830;6.914;2023-08-12T13:25:37;3.03;;;0.80;;
52724;SDS011;38621;52.830;6.914;2023-08-12T13:28:02;1.95;;;1.00;;
52724;SDS011;38621;52.830;6.914;2023-08-12T13:30:29;2.38;;;0.90;;
52724;SDS011;38621;52.830;6.914;2023-08-12T13:32:55;3.50;;;1.17;;
52724;SDS011;38621;52.830;6.914;2023-08-12T13:35:22;2.58;;;1.08;;
52724;SDS011;38621;52.830;6.914;2023-08-12T13:37:51;2.55;;;0.88;;
52724;SDS011;38621;52.830;6.914;2023-08-12T13:40:17;2.97;;;1.00;;
52724;SDS011;38621;52.830;6.914;2023-08-12T13:42:43;2.70;;;0.90;;
52724;SDS011;38621;52.830;6.914;2023-08-12T13:45:10;2.58;;;1.00;;
52724;SDS011;38621;52.830;6.914;2023-08-12T13:47:37;2.60;;;1.00;;
52724;SDS011;38621;52.830;6.914;2023-08-12T13:50:02;2.80;;;0.90;;
52724;SDS011;38621;52.830;6.914;2023-08-12T13:52:28;3.40;;;1.00;;
52724;SDS011;38621;52.830;6.914;2023-08-12T13:54:54;4.55;;;1.00;;
52724;SDS011;38621;52.830;6.914;2023-08-12T13:57:20;4.55;;;1.20;;
52724;SDS011;38621;52.830;6.914;2023-08-12T13:59:45;2.58;;;1.20;;
52724;SDS011;38621;52.830;6.914;2023-08-12T14:02:12;4.50;;;1.40;;
52724;SDS011;38621;52.830;6.914;2023-08-12T14:04:39;3.35;;;0.90;;
52724;SDS011;38621;52.830;6.914;2023-08-12T14:07:04;2.97;;;1.00;;
52724;SDS011;38621;52.830;6.914;2023-08-12T14:09:30;4.03;;;1.23;;
52724;SDS011;38621;52.830;6.914;2023-08-12T14:11:56;3.35;;;1.33;;
52724;SDS011;38621;52.830;6.914;2023-08-12T14:14:24;3.30;;;1.10;;
52724;SDS011;38621;52.830;6.914;2023-08-12T14:16:52;3.17;;;1.00;;
52724;SDS011;38621;52.830;6.914;2023-08-12T14:19:19;2.70;;;1.00;;
52724;SDS011;38621;52.830;6.914;2023-08-12T14:21:44;2.40;;;0.90;;
52724;SDS011;38621;52.830;6.914;2023-08-12T14:24:10;3.08;;;1.15;;
52724;SDS011;38621;52.830;6.914;2023-08-12T14:26:38;3.30;;;1.25;;
52724;SDS011;38621;52.830;6.914;2023-08-12T14:29:04;3.67;;;1.02;;
52724;SDS011;38621;52.830;6.914;2023-08-12T14:31:30;4.43;;;1.17;;
52724;SDS011;38621;52.830;6.914;2023-08-12T14:33:55;2.13;;;0.93;;
52724;SDS011;38621;52.830;6.914;2023-08-12T14:36:21;2.63;;;1.10;;
52724;SDS011;38621;52.830;6.914;2023-08-12T14:38:46;3.08;;;1.10;;
52724;SDS011;38621;52.830;6.914;2023-08-12T14:41:12;3.65;;;1.20;;
52724;SDS011;38621;52.830;6.914;2023-08-12T14:43:38;3.97;;;1.10;;
52724;SDS011;38621;52.830;6.914;2023-08-12T14:46:03;3.35;;;1.80;;
52724;SDS011;38621;52.830;6.914;2023-08-12T14:48:30;2.75;;;1.13;;